sensor_id;sensor_type;location;lat;lon;timestamp;pressure;altitude;pressure_sealevel;temperature;humidity
23574;BME280;11965;53.640;10.050;2022-10-31T00:00:17;101684.38;;;9.47;100.00
23574;BME280;11965;53.640;10.050;2022-10-31T00:02:43;101703.94;;;9.54;100.00
23574;BME280;11965;53.640;10.050;2022-10-31T00:05:09;101711.25;;;9.63;100.00
23574;BME280;11965;53.640;10.050;2022-10-31T00:07:36;101723.00;;;9.57;100.00
23574;BME280;11965;53.640;10.050;2022-10-31T00:10:02;101713.50;;;9.59;100.00
23574;BME280;11965;53.640;10.050;2022-10-31T00:12:27;101716.56;;;9.56;100.00
23574;BME280;11965;53.640;10.050;2022-10-31T00:14:53;101716.41;;;9.58;100.00
23574;BME280;11965;53.640;10.050;2022-10-31T00:17:18;101721.44;;;9.54;100.00
23574;BME280;11965;53.640;10.050;2022-10-31T00:19:44;101723.50;;;9.52;100.00
23574;BME280;11965;53.640;10.050;2022-10-31T00:22:10;101728.84;;;9.54;100.00
23574;BME280;11965;53.640;10.050;2022-10-31T00:24:35;101710.44;;;9.36;100.00
23574;BME280;11965;53.640;10.050;2022-10-31T00:27:01;101699.88;;;9.32;100.00
23574;BME280;11965;53.640;10.050;2022-10-31T00:29:26;101728.28;;;9.42;100.00
23574;BME280;11965;53.640;10.050;2022-10-31T00:31:52;101708.50;;;9.28;100.00
23574;BME280;11965;53.640;10.050;2022-10-31T00:34:18;101729.84;;;9.44;100.00
23574;BME280;11965;53.640;10.050;2022-10-31T00:36:44;101728.16;;;9.51;100.00
23574;BME280;11965;53.640;10.050;2022-10-31T00:39:12;101725.88;;;9.47;100.00
23574;BME280;11965;53.640;10.050;2022-10-31T00:41:38;101709.59;;;9.36;100.00
23574;BME280;11965;53.640;10.050;2022-10-31T00:44:09;101725.88;;;9.47;100.00
23574;BME280;11965;53.640;10.050;2022-10-31T00:46:35;101734.19;;;9.47;100.00
23574;BME280;11965;53.640;10.050;2022-10-31T00:49:00;101726.00;;;9.37;100.00
23574;BME280;11965;53.640;10.050;2022-10-31T00:51:26;101712.66;;;9.24;100.00
23574;BME280;11965;53.640;10.050;2022-10-31T00:53:51;101715.94;;;9.28;100.00
23574;BME280;11965;53.640;10.050;2022-10-31T00:56:17;101709.03;;;9.32;100.00
23574;BME280;11965;53.640;10.050;2022-10-31T00:58:43;101708.34;;;9.30;100.00
23574;BME280;11965;53.640;10.050;2022-10-31T01:01:08;101718.38;;;9.31;100.00
23574;BME280;11965;53.640;10.050;2022-10-31T01:03:34;101707.25;;;9.23;100.00
23574;BME280;11965;53.640;10.050;2022-10-31T01:06:03;101732.06;;;9.33;100.00
23574;BME280;11965;53.640;10.050;2022-10-31T01:08:32;101732.72;;;9.35;100.00
23574;BME280;11965;53.640;10.050;2022-10-31T01:11:05;101732.06;;;9.33;100.00
23574;BME280;11965;53.640;10.050;2022-10-31T01:13:32;101728.16;;;9.17;100.00
23574;BME280;11965;53.640;10.050;2022-10-31T01:15:59;101739.13;;;9.27;100.00
23574;BME280;11965;53.640;10.050;2022-10-31T01:18:26;101744.66;;;9.27;100.00
23574;BME280;11965;53.640;10.050;2022-10-31T01:21:00;101747.09;;;9.30;100.00
23574;BME280;11965;53.640;10.050;2022-10-31T01:23:27;101731.41;;;9.13;100.00
23574;BME280;11965;53.640;10.050;2022-10-31T01:26:42;101752.91;;;9.19;100.00
23574;BME280;11965;53.640;10.050;2022-10-31T01:28:53;101759.00;;;9.31;100.00
23574;BME280;11965;53.640;10.050;2022-10-31T01:31:21;101719.81;;;9.09;100.00
23574;BME280;11965;53.640;10.050;2022-10-31T01:33:48;101741.91;;;9.35;100.00
23574;BME280;11965;53.640;10.050;2022-10-31T01:36:31;101758.91;;;9.40;100.00
23574;BME280;11965;53.640;10.050;2022-10-31T01:39:04;101759.38;;;9.36;100.00
23574;BME280;11965;53.640;10.050;2022-10-31T01:41:33;101760.09;;;9.38;100.00
23574;BME280;11965;53.640;10.050;2022-10-31T01:46:51;101759.44;;;9.44;100.00
23574;BME280;11965;53.640;10.050;2022-10-31T01:49:37;101765.50;;;9.47;100.00
23574;BME280;11965;53.640;10.050;2022-10-31T01:54:59;101774.91;;;9.63;100.00
23574;BME280;11965;53.640;10.050;2022-10-31T01:57:28;101769.16;;;9.56;100.00
23574;BME280;11965;53.640;10.050;2022-10-31T01:59:59;101779.94;;;9.59;100.00
23574;BME280;11965;53.640;10.050;2022-10-31T02:02:27;101780.81;;;9.68;100.00
23574;BME280;11965;53.640;10.050;2022-10-31T02:04:56;101779.97;;;9.67;100.00
23574;BME280;11965;53.640;10.050;2022-10-31T02:07:36;101782.53;;;9.69;100.00
23574;BME280;11965;53.640;10.050;2022-10-31T02:10:03;101768.19;;;9.65;100.00
23574;BME280;11965;53.640;10.050;2022-10-31T02:12:31;101792.41;;;9.71;100.00
23574;BME280;11965;53.640;10.050;2022-10-31T02:15:00;101773.38;;;9.68;100.00
23574;BME280;11965;53.640;10.050;2022-10-31T02:17:26;101773.41;;;9.77;100.00
23574;BME280;11965;53.640;10.050;2022-10-31T02:20:20;101789.38;;;9.91;100.00
23574;BME280;11965;53.640;10.050;2022-10-31T02:33:55;101800.72;;;10.14;100.00
23574;BME280;11965;53.640;10.050;2022-10-31T02:39:11;101797.13;;;10.22;100.00
23574;BME280;11965;53.640;10.050;2022-10-31T02:44:29;101807.84;;;10.25;100.00
23574;BME280;11965;53.640;10.050;2022-10-31T02:47:06;101808.91;;;10.24;100.00
23574;BME280;11965;53.640;10.050;2022-10-31T02:52:33;101799.69;;;10.23;100.00
23574;BME280;11965;53.640;10.050;2022-10-31T02:58:09;101803.34;;;10.24;100.00
23574;BME280;11965;53.640;10.050;2022-10-31T03:01:10;101808.34;;;10.20;100.00
23574;BME280;11965;53.640;10.050;2022-10-31T03:12:40;101823.59;;;10.16;100.00
23574;BME280;11965;53.640;10.050;2022-10-31T03:15:16;101809.13;;;9.96;100.00
23574;BME280;11965;53.640;10.050;2022-10-31T03:18:39;101821.97;;;9.97;100.00
23574;BME280;11965;53.640;10.050;2022-10-31T03:20:51;101833.03;;;9.97;100.00
23574;BME280;11965;53.640;10.050;2022-10-31T03:23:22;101812.91;;;9.87;100.00
23574;BME280;11965;53.640;10.050;2022-10-31T03:25:53;101833.41;;;10.02;100.00
23574;BME280;11965;53.640;10.050;2022-10-31T03:28:29;101839.97;;;10.01;100.00
23574;BME280;11965;53.640;10.050;2022-10-31T03:30:56;101839.97;;;10.01;100.00
23574;BME280;11965;53.640;10.050;2022-10-31T03:33:30;101837.53;;;9.98;100.00
23574;BME280;11965;53.640;10.050;2022-10-31T03:36:00;101841.34;;;9.97;100.00
23574;BME280;11965;53.640;10.050;2022-10-31T03:38:29;101833.19;;;9.95;100.00
23574;BME280;11965;53.640;10.050;2022-10-31T03:40:58;101843.06;;;9.98;100.00
23574;BME280;11965;53.640;10.050;2022-10-31T03:43:30;101849.28;;;9.92;100.00
23574;BME280;11965;53.640;10.050;2022-10-31T03:45:58;101849.94;;;9.86;100.00
23574;BME280;11965;53.640;10.050;2022-10-31T03:48:25;101836.41;;;9.83;100.00
23574;BME280;11965;53.640;10.050;2022-10-31T03:51:07;101847.38;;;9.92;100.00
23574;BME280;11965;53.640;10.050;2022-10-31T03:56:36;101863.13;;;9.92;100.00
23574;BME280;11965;53.640;10.050;2022-10-31T03:59:17;101860.03;;;9.95;100.00
23574;BME280;11965;53.640;10.050;2022-10-31T04:01:49;101875.78;;;9.94;100.00
23574;BME280;11965;53.640;10.050;2022-10-31T04:04:19;101873.53;;;9.98;100.00
23574;BME280;11965;53.640;10.050;2022-10-31T04:06:50;101871.44;;;9.92;100.00
23574;BME280;11965;53.640;10.050;2022-10-31T04:09:19;101885.66;;;9.97;100.00
23574;BME280;11965;53.640;10.050;2022-10-31T04:11:56;101884.25;;;9.93;100.00
23574;BME280;11965;53.640;10.050;2022-10-31T04:14:36;101880.31;;;10.04;100.00
23574;BME280;11965;53.640;10.050;2022-10-31T04:17:09;101886.75;;;10.12;100.00
23574;BME280;11965;53.640;10.050;2022-10-31T04:19:39;101879.69;;;10.18;100.00
23574;BME280;11965;53.640;10.050;2022-10-31T04:22:05;101888.28;;;10.33;100.00
23574;BME280;11965;53.640;10.050;2022-10-31T04:24:30;101883.47;;;10.51;100.00
23574;BME280;11965;53.640;10.050;2022-10-31T04:26:57;101879.31;;;10.55;100.00
23574;BME280;11965;53.640;10.050;2022-10-31T04:29:23;101872.94;;;10.71;100.00
23574;BME280;11965;53.640;10.050;2022-10-31T04:31:50;101846.63;;;10.67;100.00
23574;BME280;11965;53.640;10.050;2022-10-31T04:34:16;101890.31;;;10.98;100.00
23574;BME280;11965;53.640;10.050;2022-10-31T04:36:42;101885.47;;;11.08;100.00
23574;BME280;11965;53.640;10.050;2022-10-31T04:39:07;101882.34;;;11.19;100.00
23574;BME280;11965;53.640;10.050;2022-10-31T04:42:05;101893.28;;;11.37;100.00
23574;BME280;11965;53.640;10.050;2022-10-31T04:44:31;101891.19;;;11.47;100.00
23574;BME280;11965;53.640;10.050;2022-10-31T04:46:59;101889.44;;;11.55;100.00
23574;BME280;11965;53.640;10.050;2022-10-31T04:49:25;101900.53;;;11.63;100.00
23574;BME280;11965;53.640;10.050;2022-10-31T04:51:51;101899.13;;;11.75;100.00
23574;BME280;11965;53.640;10.050;2022-10-31T04:54:17;101892.00;;;11.72;100.00
23574;BME280;11965;53.640;10.050;2022-10-31T04:57:01;101886.09;;;11.92;100.00
23574;BME280;11965;53.640;10.050;2022-10-31T04:59:28;101889.91;;;11.99;100.00
23574;BME280;11965;53.640;10.050;2022-10-31T05:01:53;101883.13;;;12.02;100.00
23574;BME280;11965;53.640;10.050;2022-10-31T05:04:33;101898.66;;;12.19;100.00
23574;BME280;11965;53.640;10.050;2022-10-31T05:06:59;101904.06;;;12.21;100.00
23574;BME280;11965;53.640;10.050;2022-10-31T05:09:25;101907.66;;;12.29;100.00
23574;BME280;11965;53.640;10.050;2022-10-31T05:11:51;101901.03;;;12.38;100.00
23574;BME280;11965;53.640;10.050;2022-10-31T05:14:37;101856.13;;;12.19;100.00
23574;BME280;11965;53.640;10.050;2022-10-31T05:17:21;101887.44;;;12.44;100.00
23574;BME280;11965;53.640;10.050;2022-10-31T05:20:06;101873.03;;;12.40;100.00
23574;BME280;11965;53.640;10.050;2022-10-31T05:22:53;101895.53;;;12.62;100.00
23574;BME280;11965;53.640;10.050;2022-10-31T05:25:22;101883.09;;;12.49;100.00
23574;BME280;11965;53.640;10.050;2022-10-31T05:27:50;101905.56;;;12.63;100.00
23574;BME280;11965;53.640;10.050;2022-10-31T05:30:22;101908.03;;;12.66;100.00
23574;BME280;11965;53.640;10.050;2022-10-31T05:32:50;101905.56;;;12.63;100.00
23574;BME280;11965;53.640;10.050;2022-10-31T05:35:42;101907.13;;;12.65;100.00
23574;BME280;11965;53.640;10.050;2022-10-31T05:38:23;101907.50;;;12.62;100.00
23574;BME280;11965;53.640;10.050;2022-10-31T05:40:49;101898.03;;;12.79;100.00
23574;BME280;11965;53.640;10.050;2022-10-31T05:43:14;101908.03;;;12.66;100.00
23574;BME280;11965;53.640;10.050;2022-10-31T05:45:40;101912.94;;;12.55;100.00
23574;BME280;11965;53.640;10.050;2022-10-31T05:48:13;101903.41;;;12.50;100.00
23574;BME280;11965;53.640;10.050;2022-10-31T05:50:57;101899.16;;;12.62;100.00
23574;BME280;11965;53.640;10.050;2022-10-31T05:53:24;101898.50;;;12.60;100.00
23574;BME280;11965;53.640;10.050;2022-10-31T05:55:50;101895.88;;;12.58;100.00
23574;BME280;11965;53.640;10.050;2022-10-31T05:58:20;101891.00;;;12.60;100.00
23574;BME280;11965;53.640;10.050;2022-10-31T06:01:01;101908.50;;;12.69;100.00
23574;BME280;11965;53.640;10.050;2022-10-31T06:03:27;101885.63;;;12.59;100.00
23574;BME280;11965;53.640;10.050;2022-10-31T06:05:57;101899.91;;;12.56;100.00
23574;BME280;11965;53.640;10.050;2022-10-31T06:08:32;101917.56;;;12.71;100.00
23574;BME280;11965;53.640;10.050;2022-10-31T06:11:02;101916.69;;;12.71;100.00
23574;BME280;11965;53.640;10.050;2022-10-31T06:13:46;101908.19;;;12.64;100.00
23574;BME280;11965;53.640;10.050;2022-10-31T06:16:18;101923.78;;;12.73;100.00
23574;BME280;11965;53.640;10.050;2022-10-31T06:18:46;101931.94;;;12.75;100.00
23574;BME280;11965;53.640;10.050;2022-10-31T06:21:12;101932.13;;;12.73;100.00
23574;BME280;11965;53.640;10.050;2022-10-31T06:23:38;101930.78;;;12.69;100.00
23574;BME280;11965;53.640;10.050;2022-10-31T06:26:22;101929.16;;;12.75;100.00
23574;BME280;11965;53.640;10.050;2022-10-31T06:28:48;101936.66;;;12.74;100.00
23574;BME280;11965;53.640;10.050;2022-10-31T06:31:28;101920.50;;;12.70;100.00
23574;BME280;11965;53.640;10.050;2022-10-31T06:33:55;101940.78;;;12.78;100.00
23574;BME280;11965;53.640;10.050;2022-10-31T06:36:20;101919.97;;;12.74;100.00
23574;BME280;11965;53.640;10.050;2022-10-31T06:38:46;101914.06;;;12.69;100.00
23574;BME280;11965;53.640;10.050;2022-10-31T06:41:13;101929.16;;;12.75;100.00
23574;BME280;11965;53.640;10.050;2022-10-31T06:43:46;101923.13;;;12.71;100.00
23574;BME280;11965;53.640;10.050;2022-10-31T06:46:22;101942.72;;;12.78;100.00
23574;BME280;11965;53.640;10.050;2022-10-31T06:49:03;101935.22;;;12.78;100.00
23574;BME280;11965;53.640;10.050;2022-10-31T06:51:52;101949.97;;;12.87;100.00
23574;BME280;11965;53.640;10.050;2022-10-31T06:54:18;101952.75;;;12.87;100.00
23574;BME280;11965;53.640;10.050;2022-10-31T06:56:48;101923.50;;;12.68;100.00
23574;BME280;11965;53.640;10.050;2022-10-31T06:59:14;101955.66;;;12.94;100.00
23574;BME280;11965;53.640;10.050;2022-10-31T07:02:00;101971.28;;;13.03;100.00
23574;BME280;11965;53.640;10.050;2022-10-31T07:04:26;101958.66;;;12.92;100.00
23574;BME280;11965;53.640;10.050;2022-10-31T07:06:51;101964.44;;;12.82;100.00
23574;BME280;11965;53.640;10.050;2022-10-31T07:09:18;101976.75;;;12.88;100.00
23574;BME280;11965;53.640;10.050;2022-10-31T07:11:45;101976.88;;;12.95;100.00
23574;BME280;11965;53.640;10.050;2022-10-31T07:14:11;101983.31;;;12.95;100.00
23574;BME280;11965;53.640;10.050;2022-10-31T07:16:37;101973.06;;;12.96;100.00
23574;BME280;11965;53.640;10.050;2022-10-31T07:19:04;101977.72;;;13.03;100.00
23574;BME280;11965;53.640;10.050;2022-10-31T07:21:30;101986.91;;;13.04;100.00
23574;BME280;11965;53.640;10.050;2022-10-31T07:23:56;101995.69;;;12.93;100.00
23574;BME280;11965;53.640;10.050;2022-10-31T07:26:40;102000.94;;;12.88;100.00
23574;BME280;11965;53.640;10.050;2022-10-31T07:29:07;102004.91;;;12.93;100.00
23574;BME280;11965;53.640;10.050;2022-10-31T07:31:33;102005.25;;;12.90;100.00
23574;BME280;11965;53.640;10.050;2022-10-31T07:34:04;102001.91;;;13.03;100.00
23574;BME280;11965;53.640;10.050;2022-10-31T07:37:02;101999.13;;;13.03;100.00
23574;BME280;11965;53.640;10.050;2022-10-31T07:39:29;101990.75;;;13.03;100.00
23574;BME280;11965;53.640;10.050;2022-10-31T07:41:58;102006.47;;;13.19;100.00
23574;BME280;11965;53.640;10.050;2022-10-31T07:44:23;101986.19;;;13.10;100.00
23574;BME280;11965;53.640;10.050;2022-10-31T07:47:07;102001.84;;;13.11;100.00
23574;BME280;11965;53.640;10.050;2022-10-31T07:49:52;101991.47;;;12.97;100.00
23574;BME280;11965;53.640;10.050;2022-10-31T07:52:40;101991.69;;;12.95;100.00
23574;BME280;11965;53.640;10.050;2022-10-31T07:55:42;102014.69;;;13.12;100.00
23574;BME280;11965;53.640;10.050;2022-10-31T07:58:13;102017.31;;;13.14;100.00
23574;BME280;11965;53.640;10.050;2022-10-31T08:00:41;102012.34;;;13.24;100.00
23574;BME280;11965;53.640;10.050;2022-10-31T08:03:10;102004.75;;;13.18;100.00
23574;BME280;11965;53.640;10.050;2022-10-31T08:05:58;102013.59;;;13.21;100.00
23574;BME280;11965;53.640;10.050;2022-10-31T08:08:43;102008.72;;;13.23;100.00
23574;BME280;11965;53.640;10.050;2022-10-31T08:11:09;101966.47;;;12.89;100.00
23574;BME280;11965;53.640;10.050;2022-10-31T08:13:34;102007.91;;;13.15;100.00
23574;BME280;11965;53.640;10.050;2022-10-31T08:16:00;102012.34;;;13.32;100.00
23574;BME280;11965;53.640;10.050;2022-10-31T08:18:31;102007.00;;;13.45;100.00
23574;BME280;11965;53.640;10.050;2022-10-31T08:20:57;102000.03;;;13.50;100.00
23574;BME280;11965;53.640;10.050;2022-10-31T08:23:23;102001.81;;;13.65;100.00
23574;BME280;11965;53.640;10.050;2022-10-31T08:25:48;102013.94;;;13.73;100.00
23574;BME280;11965;53.640;10.050;2022-10-31T08:28:15;102000.63;;;13.83;100.00
23574;BME280;11965;53.640;10.050;2022-10-31T08:30:42;102008.25;;;13.89;100.00
23574;BME280;11965;53.640;10.050;2022-10-31T08:33:27;102013.06;;;13.95;100.00
23574;BME280;11965;53.640;10.050;2022-10-31T08:36:15;102014.47;;;13.91;100.00
23574;BME280;11965;53.640;10.050;2022-10-31T08:38:47;102015.53;;;13.90;100.00
23574;BME280;11965;53.640;10.050;2022-10-31T08:41:14;102010.28;;;13.95;100.00
23574;BME280;11965;53.640;10.050;2022-10-31T08:43:40;102002.84;;;13.87;100.00
23574;BME280;11965;53.640;10.050;2022-10-31T08:46:06;102017.94;;;13.93;100.00
23574;BME280;11965;53.640;10.050;2022-10-31T08:48:32;102027.84;;;13.96;100.00
23574;BME280;11965;53.640;10.050;2022-10-31T08:50:59;102022.44;;;13.79;100.00
23574;BME280;11965;53.640;10.050;2022-10-31T08:53:27;102020.13;;;13.83;100.00
23574;BME280;11965;53.640;10.050;2022-10-31T08:56:08;102023.28;;;13.80;100.00
23574;BME280;11965;53.640;10.050;2022-10-31T08:58:35;102025.31;;;13.86;100.00
23574;BME280;11965;53.640;10.050;2022-10-31T09:01:01;102022.66;;;13.92;100.00
23574;BME280;11965;53.640;10.050;2022-10-31T09:03:29;102025.59;;;13.76;100.00
23574;BME280;11965;53.640;10.050;2022-10-31T09:05:58;102021.06;;;13.75;100.00
23574;BME280;11965;53.640;10.050;2022-10-31T09:08:28;102008.16;;;13.97;100.00
23574;BME280;11965;53.640;10.050;2022-10-31T09:10:56;102000.69;;;13.75;100.00
23574;BME280;11965;53.640;10.050;2022-10-31T09:13:42;102015.75;;;13.65;100.00
23574;BME280;11965;53.640;10.050;2022-10-31T09:16:28;102011.81;;;13.98;100.00
23574;BME280;11965;53.640;10.050;2022-10-31T09:18:54;101994.59;;;13.94;100.00
23574;BME280;11965;53.640;10.050;2022-10-31T09:21:19;102002.00;;;13.87;100.00
23574;BME280;11965;53.640;10.050;2022-10-31T09:23:46;102011.06;;;13.66;100.00
23574;BME280;11965;53.640;10.050;2022-10-31T09:26:11;101990.81;;;13.49;100.00
23574;BME280;11965;53.640;10.050;2022-10-31T09:28:41;102002.78;;;13.73;100.00
23574;BME280;11965;53.640;10.050;2022-10-31T09:31:09;101995.25;;;13.58;100.00
23574;BME280;11965;53.640;10.050;2022-10-31T09:33:46;101979.38;;;13.82;100.00
23574;BME280;11965;53.640;10.050;2022-10-31T09:36:37;101999.44;;;14.15;100.00
23574;BME280;11965;53.640;10.050;2022-10-31T09:39:04;102003.84;;;13.95;100.00
23574;BME280;11965;53.640;10.050;2022-10-31T09:45:05;101995.31;;;13.73;100.00
23574;BME280;11965;53.640;10.050;2022-10-31T09:47:51;102005.63;;;13.87;100.00
23574;BME280;11965;53.640;10.050;2022-10-31T09:50:55;102007.06;;;13.83;100.00
23574;BME280;11965;53.640;10.050;2022-10-31T09:56:18;102014.41;;;13.99;100.00
23574;BME280;11965;53.640;10.050;2022-10-31T09:58:49;102021.13;;;14.05;100.00
23574;BME280;11965;53.640;10.050;2022-10-31T10:01:43;102030.63;;;14.19;100.00
23574;BME280;11965;53.640;10.050;2022-10-31T10:18:32;102025.81;;;14.42;100.00
23574;BME280;11965;53.640;10.050;2022-10-31T10:24:17;102026.47;;;14.14;100.00
23574;BME280;11965;53.640;10.050;2022-10-31T10:29:57;102025.47;;;14.60;100.00
23574;BME280;11965;53.640;10.050;2022-10-31T10:32:28;102023.47;;;14.54;100.00
23574;BME280;11965;53.640;10.050;2022-10-31T10:35:00;102005.53;;;14.63;100.00
23574;BME280;11965;53.640;10.050;2022-10-31T10:37:41;102033.63;;;14.91;100.00
23574;BME280;11965;53.640;10.050;2022-10-31T10:40:16;102014.31;;;14.60;100.00
23574;BME280;11965;53.640;10.050;2022-10-31T10:42:46;102024.84;;;14.35;100.00
23574;BME280;11965;53.640;10.050;2022-10-31T10:45:34;102008.50;;;14.47;100.00
23574;BME280;11965;53.640;10.050;2022-10-31T10:48:34;102024.28;;;14.69;100.00
23574;BME280;11965;53.640;10.050;2022-10-31T10:51:08;102007.91;;;14.96;100.00
23574;BME280;11965;53.640;10.050;2022-10-31T10:53:54;102009.38;;;14.77;100.00
23574;BME280;11965;53.640;10.050;2022-10-31T10:56:54;101997.63;;;14.96;100.00
23574;BME280;11965;53.640;10.050;2022-10-31T10:59:26;101985.16;;;15.35;100.00
23574;BME280;11965;53.640;10.050;2022-10-31T11:01:52;101984.38;;;15.41;100.00
23574;BME280;11965;53.640;10.050;2022-10-31T11:04:35;101988.41;;;14.81;100.00
23574;BME280;11965;53.640;10.050;2022-10-31T11:07:10;101994.84;;;14.67;100.00
23574;BME280;11965;53.640;10.050;2022-10-31T11:09:37;101976.84;;;14.69;100.00
23574;BME280;11965;53.640;10.050;2022-10-31T11:12:31;101996.88;;;14.58;100.00
23574;BME280;11965;53.640;10.050;2022-10-31T11:15:00;102004.88;;;14.61;100.00
23574;BME280;11965;53.640;10.050;2022-10-31T11:17:40;101972.34;;;14.68;100.00
23574;BME280;11965;53.640;10.050;2022-10-31T11:22:37;101976.06;;;14.90;100.00
23574;BME280;11965;53.640;10.050;2022-10-31T11:25:22;101983.88;;;14.50;100.00
23574;BME280;11965;53.640;10.050;2022-10-31T11:28:10;101976.16;;;14.82;100.00
23574;BME280;11965;53.640;10.050;2022-10-31T11:31:26;101967.72;;;15.12;100.00
23574;BME280;11965;53.640;10.050;2022-10-31T11:33:44;101979.91;;;15.25;100.00
23574;BME280;11965;53.640;10.050;2022-10-31T11:36:27;101975.00;;;15.49;100.00
23574;BME280;11965;53.640;10.050;2022-10-31T11:38:55;101962.00;;;15.41;97.40
23574;BME280;11965;53.640;10.050;2022-10-31T11:41:36;101966.63;;;15.71;94.92
23574;BME280;11965;53.640;10.050;2022-10-31T11:44:18;101969.97;;;15.66;97.71
23574;BME280;11965;53.640;10.050;2022-10-31T11:46:51;101952.09;;;15.60;97.72
23574;BME280;11965;53.640;10.050;2022-10-31T11:49:23;101948.59;;;15.30;97.67
23574;BME280;11965;53.640;10.050;2022-10-31T11:51:55;101950.25;;;14.88;100.00
23574;BME280;11965;53.640;10.050;2022-10-31T11:54:50;101977.25;;;14.81;100.00
23574;BME280;11965;53.640;10.050;2022-10-31T11:59:53;101972.41;;;14.45;100.00
23574;BME280;11965;53.640;10.050;2022-10-31T12:02:20;101972.44;;;14.60;100.00
23574;BME280;11965;53.640;10.050;2022-10-31T12:04:57;101953.94;;;14.74;100.00
23574;BME280;11965;53.640;10.050;2022-10-31T12:07:24;101954.97;;;14.88;100.00
23574;BME280;11965;53.640;10.050;2022-10-31T12:09:50;101943.47;;;14.61;100.00
23574;BME280;11965;53.640;10.050;2022-10-31T12:18:02;101944.84;;;14.35;100.00
23574;BME280;11965;53.640;10.050;2022-10-31T12:21:13;101945.41;;;14.61;100.00
23574;BME280;11965;53.640;10.050;2022-10-31T12:24:18;101941.06;;;14.73;100.00
23574;BME280;11965;53.640;10.050;2022-10-31T12:41:08;101939.72;;;14.39;100.00
23574;BME280;11965;53.640;10.050;2022-10-31T12:43:45;101943.47;;;14.31;100.00
23574;BME280;11965;53.640;10.050;2022-10-31T12:57:31;101933.16;;;14.76;100.00
23574;BME280;11965;53.640;10.050;2022-10-31T13:00:12;101925.81;;;14.90;100.00
23574;BME280;11965;53.640;10.050;2022-10-31T13:02:56;101922.19;;;15.11;100.00
23574;BME280;11965;53.640;10.050;2022-10-31T13:05:37;101919.69;;;15.01;100.00
23574;BME280;11965;53.640;10.050;2022-10-31T13:11:12;101907.63;;;14.94;100.00
23574;BME280;11965;53.640;10.050;2022-10-31T13:13:41;101914.94;;;15.17;100.00
23574;BME280;11965;53.640;10.050;2022-10-31T13:16:16;101908.38;;;14.88;100.00
23574;BME280;11965;53.640;10.050;2022-10-31T13:18:54;101904.19;;;14.77;100.00
23574;BME280;11965;53.640;10.050;2022-10-31T13:21:27;101912.91;;;14.53;100.00
23574;BME280;11965;53.640;10.050;2022-10-31T13:23:59;101913.88;;;14.30;100.00
23574;BME280;11965;53.640;10.050;2022-10-31T13:26:40;101918.50;;;14.08;100.00
23574;BME280;11965;53.640;10.050;2022-10-31T13:29:32;101915.22;;;13.90;100.00
23574;BME280;11965;53.640;10.050;2022-10-31T13:32:04;101896.72;;;13.74;100.00
23574;BME280;11965;53.640;10.050;2022-10-31T13:34:40;101903.56;;;13.72;100.00
23574;BME280;11965;53.640;10.050;2022-10-31T13:45:32;101880.97;;;13.66;100.00
23574;BME280;11965;53.640;10.050;2022-10-31T13:48:19;101881.97;;;14.03;100.00
23574;BME280;11965;53.640;10.050;2022-10-31T13:50:58;101886.56;;;14.11;100.00
23574;BME280;11965;53.640;10.050;2022-10-31T13:54:01;101875.09;;;14.21;100.00
23574;BME280;11965;53.640;10.050;2022-10-31T13:56:33;101852.06;;;13.97;100.00
23574;BME280;11965;53.640;10.050;2022-10-31T13:59:15;101859.75;;;13.95;100.00
23574;BME280;11965;53.640;10.050;2022-10-31T14:02:14;101859.09;;;13.78;100.00
23574;BME280;11965;53.640;10.050;2022-10-31T14:04:50;101857.16;;;13.79;100.00
23574;BME280;11965;53.640;10.050;2022-10-31T14:07:21;101854.75;;;13.76;100.00
23574;BME280;11965;53.640;10.050;2022-10-31T14:12:40;101854.47;;;13.70;100.00
23574;BME280;11965;53.640;10.050;2022-10-31T14:15:17;101848.22;;;13.68;100.00
23574;BME280;11965;53.640;10.050;2022-10-31T14:22:39;101819.88;;;13.65;100.00
23574;BME280;11965;53.640;10.050;2022-10-31T14:27:57;101827.06;;;13.74;100.00
23574;BME280;11965;53.640;10.050;2022-10-31T14:30:26;101819.59;;;13.60;100.00
23574;BME280;11965;53.640;10.050;2022-10-31T14:33:02;101794.50;;;13.45;100.00
23574;BME280;11965;53.640;10.050;2022-10-31T14:44:20;101807.38;;;13.46;100.00
23574;BME280;11965;53.640;10.050;2022-10-31T14:52:23;101749.84;;;13.53;100.00
23574;BME280;11965;53.640;10.050;2022-10-31T14:54:54;101762.44;;;13.49;100.00
23574;BME280;11965;53.640;10.050;2022-10-31T14:57:33;101751.56;;;13.39;100.00
23574;BME280;11965;53.640;10.050;2022-10-31T15:00:20;101755.41;;;13.38;100.00
23574;BME280;11965;53.640;10.050;2022-10-31T15:02:52;101782.78;;;13.50;100.00
23574;BME280;11965;53.640;10.050;2022-10-31T15:05:22;101789.59;;;13.47;100.00
23574;BME280;11965;53.640;10.050;2022-10-31T15:07:54;101794.59;;;13.52;100.00
23574;BME280;11965;53.640;10.050;2022-10-31T15:10:27;101794.03;;;13.41;100.00
23574;BME280;11965;53.640;10.050;2022-10-31T15:12:55;101781.91;;;13.34;100.00
23574;BME280;11965;53.640;10.050;2022-10-31T15:15:25;101779.44;;;13.16;100.00
23574;BME280;11965;53.640;10.050;2022-10-31T15:17:59;101773.88;;;13.16;100.00
23574;BME280;11965;53.640;10.050;2022-10-31T15:20:28;101773.69;;;13.18;100.00
23574;BME280;11965;53.640;10.050;2022-10-31T15:22:57;101775.53;;;13.25;100.00